Sign in

Advertising

Info

Aviation weather - KDAB

METAR KDAB 301653Z 11010G15KT 3SM -RA BR SCT012 SCT021 BKN027 26/24 A2996 RMK AO2 SFC VIS 6 RAB46 SLP145 P0000 T02610239

TAF KDAB 301139Z 3012/3112 06006KT P6SM VCSH BKN015 OVC100 TEMPO 3012/3015 3SM SHRA FEW009 BKN025 BKN030 FM301500 08009KT P6SM VCSH SCT025 BKN050 BKN250 FM301800 10010KT P6SM VCTS SCT020CB BKN050 BKN150 FM310000 16004KT P6SM VCSH FEW020 SCT050 BKN150

Aviation weather from ADDS. Re-check weather before flight.

-